createdAt,value
2022-10-30T00:00:08.173Z,13.27
2022-10-30T00:01:08.166Z,13.24
2022-10-30T00:02:08.269Z,13.16
2022-10-30T00:03:08.197Z,13.12
2022-10-30T00:04:08.266Z,13.04
2022-10-30T00:05:08.105Z,13.04
2022-10-30T00:06:08.160Z,12.98
2022-10-30T00:07:08.117Z,12.94
2022-10-30T00:08:08.194Z,12.94
2022-10-30T00:09:08.081Z,12.88
2022-10-30T00:10:08.043Z,12.89
2022-10-30T00:11:08.025Z,12.88
2022-10-30T00:12:08.015Z,12.85
2022-10-30T00:13:08.005Z,12.87
2022-10-30T00:14:08.183Z,12.87
2022-10-30T00:15:08.126Z,12.84
2022-10-30T00:16:07.956Z,12.85
2022-10-30T00:17:07.944Z,12.84
2022-10-30T00:18:07.935Z,12.77
2022-10-30T00:19:07.946Z,12.79
2022-10-30T00:20:07.905Z,12.74
2022-10-30T00:21:07.897Z,12.76
2022-10-30T00:22:38.182Z,12.79
2022-10-30T00:23:38.153Z,12.77
2022-10-30T00:24:38.182Z,12.84
2022-10-30T00:25:38.135Z,12.84
2022-10-30T00:26:38.121Z,12.81
2022-10-30T00:27:38.101Z,12.81
2022-10-30T00:28:38.102Z,12.81
2022-10-30T00:29:38.101Z,12.80
2022-10-30T00:30:38.071Z,12.77
2022-10-30T00:31:38.052Z,12.74
2022-10-30T00:32:38.050Z,12.77
2022-10-30T00:33:38.030Z,12.79
2022-10-30T00:34:38.040Z,12.87
2022-10-30T00:35:38.039Z,12.87
2022-10-30T00:36:37.994Z,12.92
2022-10-30T00:37:37.971Z,12.91
2022-10-30T00:38:37.968Z,12.96
2022-10-30T00:39:37.971Z,12.98
2022-10-30T00:40:37.943Z,12.95
2022-10-30T00:41:37.930Z,12.98
2022-10-30T00:42:37.934Z,12.98
2022-10-30T00:43:37.996Z,12.96
2022-10-30T00:44:37.943Z,12.95
2022-10-30T00:45:37.872Z,12.94
2022-10-30T00:46:37.866Z,12.95
2022-10-30T00:47:38.561Z,12.95
2022-10-30T00:48:37.870Z,12.95
2022-10-30T00:49:37.908Z,12.95
2022-10-30T00:50:37.810Z,13.01
2022-10-30T00:51:37.800Z,13.01
2022-10-30T00:52:37.791Z,13.04
2022-10-30T00:53:37.779Z,13.03
2022-10-30T00:54:37.791Z,13.07
2022-10-30T00:55:37.744Z,13.10
2022-10-30T00:56:37.736Z,13.10
2022-10-30T00:57:38.279Z,13.10
2022-10-30T00:58:37.711Z,13.10
2022-10-30T00:59:37.720Z,13.09
2022-10-30T01:00:37.671Z,13.09
2022-10-30T01:01:37.791Z,13.06
2022-10-30T01:02:37.721Z,13.10
2022-10-30T01:03:37.631Z,13.13
2022-10-30T01:04:37.655Z,13.14
2022-10-30T01:05:37.601Z,13.19
2022-10-30T01:06:38.439Z,13.19
2022-10-30T01:07:37.589Z,13.19
2022-10-30T01:08:37.621Z,13.19
2022-10-30T01:09:37.581Z,13.21
2022-10-30T01:10:37.543Z,13.22
2022-10-30T01:11:38.291Z,13.17
2022-10-30T01:12:37.516Z,13.19
2022-10-30T01:13:37.508Z,13.16
2022-10-30T01:14:37.522Z,13.17
2022-10-30T01:15:37.481Z,13.17
2022-10-30T01:16:37.460Z,13.17
2022-10-30T01:17:37.458Z,13.16
2022-10-30T01:18:37.430Z,13.17
2022-10-30T01:19:37.452Z,13.16
2022-10-30T01:20:37.415Z,13.19
2022-10-30T01:21:37.400Z,13.19
2022-10-30T01:22:38.363Z,13.17
2022-10-30T01:23:37.524Z,13.17
2022-10-30T01:24:37.380Z,13.21
2022-10-30T01:25:37.350Z,13.14
2022-10-30T01:26:37.339Z,13.16
2022-10-30T01:27:37.340Z,13.16
2022-10-30T01:28:37.301Z,13.12
2022-10-30T01:29:37.322Z,13.17
2022-10-30T01:30:37.281Z,13.17
2022-10-30T01:31:37.270Z,13.19
2022-10-30T01:32:38.013Z,13.17
2022-10-30T01:33:37.340Z,13.19
2022-10-30T01:34:37.272Z,13.17
2022-10-30T01:35:37.392Z,13.19
2022-10-30T01:36:37.201Z,13.24
2022-10-30T01:37:37.190Z,13.27
2022-10-30T01:38:37.170Z,13.24
2022-10-30T01:39:37.197Z,13.25
2022-10-30T01:40:37.200Z,13.24
2022-10-30T01:41:37.172Z,13.27
2022-10-30T01:42:37.121Z,13.24
2022-10-30T01:43:37.111Z,13.25
2022-10-30T01:44:37.123Z,13.29
2022-10-30T01:45:37.082Z,13.27
2022-10-30T01:46:37.101Z,13.24
2022-10-30T01:47:37.057Z,13.24
2022-10-30T01:48:37.040Z,13.27
2022-10-30T01:49:37.059Z,13.29
2022-10-30T01:50:37.011Z,13.24
2022-10-30T01:51:37.001Z,13.22
2022-10-30T01:52:36.991Z,13.24
2022-10-30T01:53:36.979Z,13.21
2022-10-30T01:54:36.982Z,13.19
2022-10-30T01:55:36.948Z,13.19
2022-10-30T01:56:36.931Z,13.14
2022-10-30T01:57:36.921Z,13.13
2022-10-30T01:58:36.918Z,13.12
2022-10-30T01:59:36.920Z,13.12
2022-10-30T02:00:36.881Z,13.10
2022-10-30T02:01:36.983Z,13.10
2022-10-30T02:02:37.886Z,13.06
2022-10-30T02:03:36.840Z,13.12
2022-10-30T02:04:36.860Z,13.04
2022-10-30T02:05:36.824Z,13.09
2022-10-30T02:06:36.803Z,13.03
2022-10-30T02:07:36.793Z,13.03
2022-10-30T02:08:36.773Z,13.03
2022-10-30T02:09:36.791Z,12.99
2022-10-30T02:10:36.743Z,12.99
2022-10-30T02:11:36.741Z,13.01
2022-10-30T02:12:36.722Z,13.03
2022-10-30T02:13:36.711Z,12.99
2022-10-30T02:14:36.725Z,12.96
2022-10-30T02:15:36.689Z,12.96
2022-10-30T02:16:36.667Z,12.95
2022-10-30T02:17:36.663Z,12.98
2022-10-30T02:18:36.681Z,12.95
2022-10-30T02:19:36.662Z,12.98
2022-10-30T02:20:36.621Z,12.95
2022-10-30T02:21:36.614Z,12.99
2022-10-30T02:22:36.628Z,12.94
2022-10-30T02:23:36.583Z,12.89
2022-10-30T02:24:36.593Z,12.91
2022-10-30T02:25:36.550Z,12.92
2022-10-30T02:26:36.545Z,12.89
2022-10-30T02:27:36.522Z,12.88
2022-10-30T02:28:36.513Z,12.89
2022-10-30T02:29:36.531Z,12.89
2022-10-30T02:30:36.481Z,12.87
2022-10-30T02:31:36.473Z,12.84
2022-10-30T02:32:36.461Z,12.84
2022-10-30T02:33:36.448Z,12.80
2022-10-30T02:34:36.458Z,12.77
2022-10-30T02:35:36.422Z,12.77
2022-10-30T02:36:36.400Z,12.79
2022-10-30T02:37:36.408Z,12.76
2022-10-30T02:38:36.391Z,12.74
2022-10-30T02:39:36.702Z,12.73
2022-10-30T02:40:36.350Z,12.69
2022-10-30T02:41:36.341Z,12.67
2022-10-30T02:42:36.330Z,12.69
2022-10-30T02:43:36.312Z,12.63
2022-10-30T02:44:36.321Z,12.66
2022-10-30T02:45:36.292Z,12.61
2022-10-30T02:46:36.271Z,12.62
2022-10-30T02:47:36.397Z,12.58
2022-10-30T02:48:36.243Z,12.61
2022-10-30T02:49:36.272Z,12.55
2022-10-30T02:50:36.220Z,12.55
2022-10-30T02:51:36.212Z,12.52
2022-10-30T02:52:36.191Z,12.52
2022-10-30T02:53:36.180Z,12.49
2022-10-30T02:54:36.201Z,12.49
2022-10-30T02:55:36.353Z,12.44
2022-10-30T02:56:36.141Z,12.43
2022-10-30T02:57:36.133Z,12.40
2022-10-30T02:58:36.111Z,12.40
2022-10-30T02:59:36.135Z,12.37
2022-10-30T03:00:36.092Z,12.34
2022-10-30T03:01:36.160Z,12.36
2022-10-30T03:02:36.065Z,12.33
2022-10-30T03:03:36.125Z,12.29
2022-10-30T03:04:36.061Z,12.26
2022-10-30T03:05:36.022Z,12.29
2022-10-30T03:06:36.014Z,12.29
2022-10-30T03:07:36.000Z,12.30
2022-10-30T03:08:35.988Z,12.30
2022-10-30T03:09:36.011Z,12.30
2022-10-30T03:10:35.960Z,12.34
2022-10-30T03:11:35.951Z,12.31
2022-10-30T03:12:35.931Z,12.30
2022-10-30T03:13:35.939Z,12.34
2022-10-30T03:14:35.931Z,12.37
2022-10-30T03:15:35.900Z,12.36
2022-10-30T03:16:35.870Z,12.37
2022-10-30T03:17:35.908Z,12.38
2022-10-30T03:18:35.851Z,12.37
2022-10-30T03:19:35.878Z,12.37
2022-10-30T03:20:35.821Z,12.38
2022-10-30T03:21:35.826Z,12.37
2022-10-30T03:22:35.801Z,12.40
2022-10-30T03:23:35.793Z,12.41
2022-10-30T03:24:35.802Z,12.38
2022-10-30T03:25:35.769Z,12.40
2022-10-30T03:26:35.749Z,12.36
2022-10-30T03:27:35.765Z,12.36
2022-10-30T03:28:35.720Z,12.34
2022-10-30T03:29:35.740Z,12.30
2022-10-30T03:30:35.693Z,12.30
2022-10-30T03:31:35.681Z,12.31
2022-10-30T03:32:35.688Z,12.23
2022-10-30T03:33:35.660Z,12.29
2022-10-30T03:34:35.672Z,12.25
2022-10-30T03:35:35.632Z,12.22
2022-10-30T03:36:35.612Z,12.18
2022-10-30T03:37:35.609Z,12.18
2022-10-30T03:38:35.591Z,12.16
2022-10-30T03:39:35.621Z,12.13
2022-10-30T03:40:35.560Z,12.15
2022-10-30T03:41:35.550Z,12.11
2022-10-30T03:42:35.540Z,12.07
2022-10-30T03:43:35.522Z,12.05
2022-10-30T03:44:35.513Z,12.01
2022-10-30T03:45:35.531Z,12.01
2022-10-30T03:46:35.481Z,12.00
2022-10-30T03:47:35.471Z,11.98
2022-10-30T03:48:35.451Z,12.00
2022-10-30T03:49:35.451Z,11.97
2022-10-30T03:50:35.450Z,11.97
2022-10-30T03:51:35.446Z,11.94
2022-10-30T03:52:35.407Z,11.93
2022-10-30T03:53:35.391Z,11.84
2022-10-30T03:54:35.379Z,11.85
2022-10-30T03:55:35.391Z,11.78
2022-10-30T03:56:35.364Z,11.75
2022-10-30T03:57:35.342Z,11.77
2022-10-30T03:58:35.329Z,11.74
2022-10-30T03:59:35.319Z,11.67
2022-10-30T04:00:35.334Z,11.64
2022-10-30T04:01:35.391Z,11.64
2022-10-30T04:02:35.274Z,11.59
2022-10-30T04:03:35.265Z,11.57
2022-10-30T04:04:35.240Z,11.57
2022-10-30T04:05:35.318Z,11.56
2022-10-30T04:06:35.222Z,11.53
2022-10-30T04:07:35.211Z,11.49
2022-10-30T04:08:35.191Z,11.45
2022-10-30T04:09:35.189Z,11.42
2022-10-30T04:10:35.343Z,11.42
2022-10-30T04:11:35.159Z,11.41
2022-10-30T04:12:35.139Z,11.33
2022-10-30T04:13:35.131Z,11.30
2022-10-30T04:14:35.118Z,11.27
2022-10-30T04:15:35.140Z,11.28
2022-10-30T04:16:35.081Z,11.30
2022-10-30T04:17:35.078Z,11.27
2022-10-30T04:18:35.072Z,11.26
2022-10-30T04:19:35.052Z,11.26
2022-10-30T04:20:35.060Z,11.28
2022-10-30T04:21:35.021Z,11.31
2022-10-30T04:22:35.010Z,11.31
2022-10-30T04:23:35.001Z,11.30
2022-10-30T04:24:34.980Z,11.33
2022-10-30T04:25:35.008Z,11.33
2022-10-30T04:26:34.950Z,11.36
2022-10-30T04:27:34.952Z,11.36
2022-10-30T04:28:34.921Z,11.41
2022-10-30T04:29:34.926Z,11.41
2022-10-30T04:30:34.930Z,11.44
2022-10-30T04:31:34.903Z,11.39
2022-10-30T04:32:34.878Z,11.42
2022-10-30T04:33:34.879Z,11.42
2022-10-30T04:34:34.860Z,11.39
2022-10-30T04:35:34.869Z,11.44
2022-10-30T04:36:34.830Z,11.42
2022-10-30T04:37:34.816Z,11.42
2022-10-30T04:38:34.797Z,11.41
2022-10-30T04:39:34.791Z,11.44
2022-10-30T04:40:34.801Z,11.41
2022-10-30T04:41:34.762Z,11.44
2022-10-30T04:42:34.740Z,11.45
2022-10-30T04:43:34.739Z,11.42
2022-10-30T04:44:34.721Z,11.44
2022-10-30T04:45:34.750Z,11.46
2022-10-30T04:46:34.691Z,11.46
2022-10-30T04:47:34.684Z,11.48
2022-10-30T04:48:34.660Z,11.49
2022-10-30T04:49:34.656Z,11.51
2022-10-30T04:50:34.664Z,11.53
2022-10-30T04:51:34.631Z,11.54
2022-10-30T04:52:34.611Z,11.54
2022-10-30T04:53:34.601Z,11.56
2022-10-30T04:54:34.579Z,11.56
2022-10-30T04:55:34.599Z,11.57
2022-10-30T04:56:34.560Z,11.53
2022-10-30T04:57:34.548Z,11.53
2022-10-30T04:58:34.529Z,11.53
2022-10-30T04:59:34.521Z,11.56
2022-10-30T05:00:34.529Z,11.56
2022-10-30T05:01:34.615Z,11.56
2022-10-30T05:02:34.663Z,11.56
2022-10-30T05:03:34.470Z,11.57
2022-10-30T05:04:34.458Z,11.56
2022-10-30T05:05:34.475Z,11.57
2022-10-30T05:06:34.430Z,11.54
2022-10-30T05:07:34.417Z,11.56
2022-10-30T05:08:34.399Z,11.56
2022-10-30T05:09:34.390Z,11.56
2022-10-30T05:10:34.399Z,11.57
2022-10-30T05:11:34.369Z,11.57
2022-10-30T05:12:34.339Z,11.56
2022-10-30T05:13:34.339Z,11.53
2022-10-30T05:14:34.320Z,11.48
2022-10-30T05:15:34.341Z,11.44
2022-10-30T05:16:34.296Z,11.39
2022-10-30T05:17:34.313Z,11.36
2022-10-30T05:18:34.270Z,11.30
2022-10-30T05:19:34.258Z,11.24
2022-10-30T05:20:34.278Z,11.23
2022-10-30T05:21:34.229Z,11.21
2022-10-30T05:22:34.213Z,11.17
2022-10-30T05:23:34.208Z,11.16
2022-10-30T05:24:34.191Z,11.11
2022-10-30T05:25:34.209Z,11.06
2022-10-30T05:26:34.172Z,11.05
2022-10-30T05:27:34.151Z,11.03
2022-10-30T05:28:34.161Z,10.99
2022-10-30T05:29:34.128Z,10.95
2022-10-30T05:30:34.182Z,10.93
2022-10-30T05:31:34.098Z,10.90
2022-10-30T05:32:34.088Z,10.91
2022-10-30T05:33:34.072Z,10.87
2022-10-30T05:34:34.068Z,10.86
2022-10-30T05:35:34.069Z,10.80
2022-10-30T05:36:34.047Z,10.75
2022-10-30T05:37:34.088Z,10.73
2022-10-30T05:38:34.009Z,10.68
2022-10-30T05:39:33.990Z,10.68
2022-10-30T05:40:34.017Z,10.66
2022-10-30T05:41:33.966Z,10.70
2022-10-30T05:42:33.968Z,10.70
2022-10-30T05:43:33.940Z,10.70
2022-10-30T05:44:58.727Z,10.78
2022-10-30T05:45:34.936Z,10.75
2022-10-30T05:46:33.862Z,10.78
2022-10-30T05:47:33.828Z,10.87
2022-10-30T05:48:33.829Z,10.90
2022-10-30T05:49:33.799Z,10.91
2022-10-30T05:50:33.817Z,10.91
2022-10-30T05:51:37.949Z,10.94
2022-10-30T05:52:34.770Z,10.95
2022-10-30T05:53:33.759Z,10.95
2022-10-30T05:54:33.746Z,10.95
2022-10-30T05:55:33.747Z,10.93
2022-10-30T05:56:33.869Z,10.90
2022-10-30T05:57:33.700Z,10.87
2022-10-30T05:58:33.687Z,10.87
2022-10-30T05:59:33.669Z,10.88
2022-10-30T06:00:33.688Z,10.87
2022-10-30T06:01:33.759Z,10.90
2022-10-30T06:02:33.661Z,10.87
2022-10-30T06:03:33.617Z,10.88
2022-10-30T06:04:33.608Z,10.94
2022-10-30T06:05:33.618Z,10.93
2022-10-30T06:06:33.578Z,10.94
2022-10-30T06:07:33.719Z,10.88
2022-10-30T06:08:33.562Z,10.88
2022-10-30T06:09:33.824Z,10.86
2022-10-30T06:10:33.559Z,10.88
2022-10-30T06:11:33.517Z,10.78
2022-10-30T06:12:33.501Z,10.76
2022-10-30T06:13:33.705Z,10.70
2022-10-30T06:14:33.486Z,10.66
2022-10-30T06:15:33.489Z,10.60
2022-10-30T06:16:33.464Z,10.57
2022-10-30T06:17:33.427Z,10.54
2022-10-30T06:18:36.128Z,10.52
2022-10-30T06:19:33.530Z,10.52
2022-10-30T06:20:33.635Z,10.55
2022-10-30T06:21:33.388Z,10.51
2022-10-30T06:22:33.608Z,10.52
2022-10-30T06:23:33.357Z,10.49
2022-10-30T06:24:33.345Z,10.49
2022-10-30T06:25:39.354Z,10.44
2022-10-30T06:26:34.317Z,10.44
2022-10-30T06:27:33.306Z,10.42
2022-10-30T06:28:33.298Z,10.43
2022-10-30T06:29:33.279Z,10.42
2022-10-30T06:30:33.297Z,10.38
2022-10-30T06:31:33.567Z,10.38
2022-10-30T06:32:33.257Z,10.35
2022-10-30T06:33:33.994Z,10.34
2022-10-30T06:34:33.207Z,10.36
2022-10-30T06:35:33.237Z,10.32
2022-10-30T06:36:33.205Z,10.34
2022-10-30T06:37:33.166Z,10.32
2022-10-30T06:38:33.238Z,10.35
2022-10-30T06:39:33.144Z,10.31
2022-10-30T06:40:33.200Z,10.36
2022-10-30T06:41:33.127Z,10.46
2022-10-30T06:42:33.107Z,10.47
2022-10-30T06:43:33.086Z,10.51
2022-10-30T06:44:33.187Z,10.60
2022-10-30T06:45:33.086Z,10.66
2022-10-30T06:46:33.814Z,10.72
2022-10-30T06:47:33.036Z,10.75
2022-10-30T06:48:33.027Z,10.76
2022-10-30T06:49:33.005Z,10.78
2022-10-30T06:50:33.027Z,10.75
2022-10-30T06:51:32.985Z,10.75
2022-10-30T06:52:32.985Z,10.76
2022-10-30T06:53:32.963Z,10.70
2022-10-30T06:54:32.946Z,10.72
2022-10-30T06:55:32.955Z,10.75
2022-10-30T06:56:32.916Z,10.75
2022-10-30T06:57:32.905Z,10.78
2022-10-30T06:58:32.896Z,10.76
2022-10-30T06:59:32.874Z,10.75
2022-10-30T07:00:32.897Z,10.78
2022-10-30T07:01:32.938Z,10.81
2022-10-30T07:02:32.849Z,10.80
2022-10-30T07:03:32.828Z,10.78
2022-10-30T07:04:32.816Z,10.78
2022-10-30T07:05:32.934Z,10.76
2022-10-30T07:06:32.786Z,10.75
2022-10-30T07:07:32.765Z,10.78
2022-10-30T07:08:32.784Z,10.78
2022-10-30T07:09:32.756Z,10.76
2022-10-30T07:10:32.776Z,10.80
2022-10-30T07:11:32.716Z,10.80
2022-10-30T07:12:32.705Z,10.80
2022-10-30T07:13:32.687Z,10.84
2022-10-30T07:14:32.682Z,10.86
2022-10-30T07:15:32.768Z,10.90
2022-10-30T07:16:32.681Z,10.90
2022-10-30T07:17:32.670Z,10.91
2022-10-30T07:18:32.640Z,10.93
2022-10-30T07:19:32.605Z,10.91
2022-10-30T07:20:32.649Z,10.95
2022-10-30T07:21:32.585Z,10.99
2022-10-30T07:22:32.605Z,10.99
2022-10-30T07:23:32.554Z,11.03
2022-10-30T07:24:32.638Z,11.05
2022-10-30T07:25:32.844Z,11.08
2022-10-30T07:26:32.524Z,11.09
2022-10-30T07:27:32.505Z,11.16
2022-10-30T07:28:32.499Z,11.19
2022-10-30T07:29:32.484Z,11.21
2022-10-30T07:30:32.497Z,11.28
2022-10-30T07:31:42.371Z,11.31
2022-10-30T07:32:33.444Z,11.35
2022-10-30T07:33:32.431Z,11.42
2022-10-30T07:34:32.415Z,11.46
2022-10-30T07:35:32.463Z,11.54
2022-10-30T07:36:32.402Z,11.54
2022-10-30T07:37:32.375Z,11.56
2022-10-30T07:38:32.364Z,11.57
2022-10-30T07:39:32.345Z,11.60
2022-10-30T07:40:32.364Z,11.62
2022-10-30T07:41:32.314Z,11.60
2022-10-30T07:42:32.312Z,11.62
2022-10-30T07:43:32.295Z,11.63
2022-10-30T07:44:32.285Z,11.63
2022-10-30T07:45:32.293Z,11.67
2022-10-30T07:46:32.261Z,11.70
2022-10-30T07:47:32.244Z,11.75
2022-10-30T07:48:32.240Z,11.78
2022-10-30T07:49:32.224Z,11.77
2022-10-30T07:50:32.239Z,11.79
2022-10-30T07:51:32.191Z,11.82
2022-10-30T07:52:32.181Z,11.84
2022-10-30T07:53:32.166Z,11.87
2022-10-30T07:54:32.162Z,11.88
2022-10-30T07:55:32.165Z,11.93
2022-10-30T07:56:32.135Z,11.97
2022-10-30T07:57:32.114Z,11.98
2022-10-30T07:58:32.102Z,12.04
2022-10-30T07:59:32.085Z,12.05
2022-10-30T08:00:32.104Z,12.05
2022-10-30T08:01:32.121Z,12.11
2022-10-30T08:02:32.137Z,12.16
2022-10-30T08:03:32.034Z,12.18
2022-10-30T08:04:32.016Z,12.23
2022-10-30T08:05:32.032Z,12.26
2022-10-30T08:06:31.997Z,12.25
2022-10-30T08:07:31.983Z,12.31
2022-10-30T08:08:31.964Z,12.37
2022-10-30T08:09:31.953Z,12.38
2022-10-30T08:10:31.964Z,12.44
2022-10-30T08:11:31.923Z,12.48
2022-10-30T08:12:31.914Z,12.51
2022-10-30T08:13:31.895Z,12.54
2022-10-30T08:14:31.883Z,12.56
2022-10-30T08:15:31.904Z,12.62
2022-10-30T08:16:31.879Z,12.67
2022-10-30T08:17:31.844Z,12.67
2022-10-30T08:18:31.835Z,12.76
2022-10-30T08:19:31.816Z,12.77
2022-10-30T08:20:31.803Z,12.87
2022-10-30T08:21:31.812Z,12.91
2022-10-30T08:22:31.786Z,12.94
2022-10-30T08:23:31.775Z,12.98
2022-10-30T08:24:31.754Z,13.01
2022-10-30T08:25:31.734Z,13.06
2022-10-30T08:26:31.763Z,13.12
2022-10-30T08:27:31.715Z,13.16
2022-10-30T08:28:33.040Z,13.19
2022-10-30T08:29:31.684Z,13.22
2022-10-30T08:30:31.674Z,13.27
2022-10-30T08:31:31.683Z,13.28
2022-10-30T08:32:31.662Z,13.35
2022-10-30T08:33:31.633Z,13.36
2022-10-30T08:34:31.667Z,13.36
2022-10-30T08:35:31.678Z,13.38
2022-10-30T08:36:31.597Z,13.44
2022-10-30T08:37:31.583Z,13.46
2022-10-30T08:38:31.577Z,13.50
2022-10-30T08:39:31.554Z,13.54
2022-10-30T08:40:31.573Z,13.57
2022-10-30T08:41:31.523Z,13.62
2022-10-30T08:42:31.520Z,13.65
2022-10-30T08:43:31.500Z,13.69
2022-10-30T08:44:31.492Z,13.72
2022-10-30T08:45:31.611Z,13.73
2022-10-30T08:46:31.463Z,13.75
2022-10-30T08:47:31.444Z,13.75
2022-10-30T08:48:31.441Z,13.76
2022-10-30T08:49:31.427Z,13.84
2022-10-30T08:50:31.445Z,13.81
2022-10-30T08:51:31.404Z,13.86
2022-10-30T08:52:31.403Z,13.87
2022-10-30T08:53:31.374Z,13.91
2022-10-30T08:54:31.362Z,13.93
2022-10-30T08:55:32.255Z,13.99
2022-10-30T08:56:31.337Z,14.04
2022-10-30T08:57:31.321Z,14.08
2022-10-30T08:58:31.310Z,14.09
2022-10-30T08:59:31.286Z,14.13
2022-10-30T09:00:31.283Z,14.20
2022-10-30T09:01:31.432Z,14.26
2022-10-30T09:02:31.322Z,14.27
2022-10-30T09:03:31.234Z,14.27
2022-10-30T09:04:31.224Z,14.30
2022-10-30T09:05:31.203Z,14.36
2022-10-30T09:06:31.314Z,14.42
2022-10-30T09:07:31.181Z,14.48
2022-10-30T09:08:31.175Z,14.59
2022-10-30T09:09:31.156Z,14.72
2022-10-30T09:10:31.174Z,14.93
2022-10-30T09:11:31.155Z,15.05
2022-10-30T09:12:31.113Z,15.11
2022-10-30T09:13:31.103Z,15.16
2022-10-30T09:14:31.094Z,15.15
2022-10-30T09:15:31.076Z,15.15
2022-10-30T09:16:31.106Z,15.12
2022-10-30T09:17:31.047Z,15.09
2022-10-30T09:18:31.034Z,15.11
2022-10-30T09:19:31.074Z,15.13
2022-10-30T09:20:31.018Z,15.12
2022-10-30T09:21:31.021Z,15.09
2022-10-30T09:22:31.075Z,15.12
2022-10-30T09:23:30.964Z,15.16
2022-10-30T09:24:30.965Z,15.16
2022-10-30T09:25:30.941Z,15.19
2022-10-30T09:26:30.953Z,15.22
2022-10-30T09:27:30.912Z,15.20
2022-10-30T09:28:30.907Z,15.27
2022-10-30T09:29:30.893Z,15.30
2022-10-30T09:30:30.914Z,15.30
2022-10-30T09:31:31.495Z,15.33
2022-10-30T09:32:30.866Z,15.34
2022-10-30T09:33:30.835Z,15.41
2022-10-30T09:34:30.828Z,15.38
2022-10-30T09:35:30.806Z,15.41
2022-10-30T09:36:30.840Z,15.41
2022-10-30T09:37:30.775Z,15.40
2022-10-30T09:38:31.718Z,15.43
2022-10-30T09:39:31.475Z,15.49
2022-10-30T09:40:30.794Z,15.49
2022-10-30T09:41:30.772Z,15.53
2022-10-30T09:42:30.719Z,15.62
2022-10-30T09:43:31.294Z,15.68
2022-10-30T09:44:31.534Z,15.76
2022-10-30T09:45:30.723Z,15.89
2022-10-30T09:46:30.694Z,16.01
2022-10-30T09:47:30.721Z,16.11
2022-10-30T09:48:30.635Z,16.13
2022-10-30T09:49:30.626Z,16.22
2022-10-30T09:50:32.195Z,16.26
2022-10-30T09:51:30.626Z,16.32
2022-10-30T09:52:30.576Z,16.40
2022-10-30T09:53:30.579Z,16.51
2022-10-30T09:54:30.557Z,16.63
2022-10-30T09:55:30.636Z,16.62
2022-10-30T09:56:34.849Z,16.62
2022-10-30T09:57:30.530Z,16.67
2022-10-30T09:58:30.676Z,16.63
2022-10-30T09:59:30.495Z,16.72
2022-10-30T10:00:30.486Z,16.81
2022-10-30T10:01:30.624Z,16.81
2022-10-30T10:02:30.542Z,16.85
2022-10-30T10:03:30.444Z,16.91
2022-10-30T10:04:31.201Z,17.03
2022-10-30T10:05:30.418Z,17.17
2022-10-30T10:06:30.455Z,17.24
2022-10-30T10:07:31.018Z,17.33
2022-10-30T10:08:30.368Z,17.35
2022-10-30T10:09:30.418Z,17.39
2022-10-30T10:10:30.347Z,17.46
2022-10-30T10:11:30.496Z,17.60
2022-10-30T10:12:30.457Z,17.66
2022-10-30T10:13:30.306Z,17.81
2022-10-30T10:14:31.178Z,17.96
2022-10-30T10:15:30.286Z,18.04
2022-10-30T10:16:30.362Z,18.09
2022-10-30T10:17:30.371Z,18.21
2022-10-30T10:18:30.239Z,18.21
2022-10-30T10:19:30.228Z,18.28
2022-10-30T10:20:30.220Z,18.26
2022-10-30T10:21:30.504Z,18.31
2022-10-30T10:22:30.207Z,18.35
2022-10-30T10:23:30.417Z,18.34
2022-10-30T10:24:30.198Z,18.31
2022-10-30T10:25:30.171Z,18.32
2022-10-30T10:26:30.164Z,18.42
2022-10-30T10:27:30.129Z,18.54
2022-10-30T10:28:35.646Z,18.72
2022-10-30T10:29:31.097Z,18.79
2022-10-30T10:30:30.077Z,18.89
2022-10-30T10:31:30.117Z,19.02
2022-10-30T10:32:30.048Z,19.16
2022-10-30T10:33:30.054Z,19.31
2022-10-30T10:34:30.034Z,19.45
2022-10-30T10:35:30.110Z,19.61
2022-10-30T10:36:30.028Z,19.76
2022-10-30T10:37:29.996Z,19.89
2022-10-30T10:38:29.978Z,19.98
2022-10-30T10:39:29.998Z,20.04
2022-10-30T10:40:29.955Z,20.12
2022-10-30T10:41:29.969Z,20.19
2022-10-30T10:42:30.027Z,20.26
2022-10-30T10:43:29.942Z,20.38
2022-10-30T10:44:29.979Z,20.37
2022-10-30T10:45:29.939Z,20.42
2022-10-30T10:46:29.887Z,20.26
2022-10-30T10:47:30.609Z,20.15
2022-10-30T10:48:29.944Z,20.13
2022-10-30T10:49:29.960Z,20.07
2022-10-30T10:50:29.855Z,20.01
2022-10-30T10:51:30.050Z,19.98
2022-10-30T10:52:29.873Z,19.97
2022-10-30T10:53:29.790Z,19.86
2022-10-30T10:54:29.771Z,19.90
2022-10-30T10:55:29.795Z,20.05
2022-10-30T10:56:29.740Z,20.12
2022-10-30T10:57:29.740Z,20.15
2022-10-30T10:58:29.721Z,20.17
2022-10-30T10:59:29.841Z,20.22
2022-10-30T11:00:29.724Z,20.31
2022-10-30T11:01:29.805Z,20.40
2022-10-30T11:02:50.672Z,20.51
2022-10-30T11:03:29.653Z,20.56
2022-10-30T11:04:29.644Z,20.58
2022-10-30T11:05:30.011Z,20.63
2022-10-30T11:06:29.613Z,20.66
2022-10-30T11:07:29.752Z,20.64
2022-10-30T11:08:29.700Z,20.63
2022-10-30T11:09:29.636Z,20.69
2022-10-30T11:10:29.772Z,20.75
2022-10-30T11:11:29.576Z,20.82
2022-10-30T11:12:33.680Z,20.87
2022-10-30T11:13:30.628Z,20.88
2022-10-30T11:14:30.193Z,20.82
2022-10-30T11:15:29.496Z,20.75
2022-10-30T11:16:29.643Z,20.78
2022-10-30T11:17:30.075Z,20.79
2022-10-30T11:18:29.454Z,20.78
2022-10-30T11:19:29.521Z,20.75
2022-10-30T11:20:30.094Z,20.73
2022-10-30T11:21:29.496Z,20.78
2022-10-30T11:22:29.397Z,20.78
2022-10-30T11:23:29.662Z,20.69
2022-10-30T11:24:29.577Z,20.53
2022-10-30T11:25:31.375Z,20.53
2022-10-30T11:26:29.425Z,20.53
2022-10-30T11:27:29.510Z,20.54
2022-10-30T11:28:29.412Z,20.60
2022-10-30T11:29:29.320Z,20.68
2022-10-30T11:30:29.358Z,20.75
2022-10-30T11:31:29.305Z,20.72
2022-10-30T11:32:30.207Z,20.66
2022-10-30T11:33:29.296Z,20.64
2022-10-30T11:34:29.466Z,20.64
2022-10-30T11:35:29.257Z,20.64
2022-10-30T11:36:29.217Z,20.58
2022-10-30T11:37:29.198Z,20.48
2022-10-30T11:38:29.288Z,20.46
2022-10-30T11:39:29.239Z,20.46
2022-10-30T11:40:29.208Z,20.46
2022-10-30T11:41:29.212Z,20.50
2022-10-30T11:42:29.138Z,20.53
2022-10-30T11:43:29.129Z,20.54
2022-10-30T11:44:29.119Z,20.58
2022-10-30T11:45:29.197Z,20.61
2022-10-30T11:46:29.087Z,20.66
2022-10-30T11:47:29.285Z,20.58
2022-10-30T11:48:29.213Z,20.54
2022-10-30T11:49:29.180Z,20.53
2022-10-30T11:50:29.059Z,20.57
2022-10-30T11:51:29.135Z,20.50
2022-10-30T11:52:29.050Z,20.38
2022-10-30T11:53:29.099Z,20.34
2022-10-30T11:54:28.981Z,20.27
2022-10-30T11:55:28.992Z,20.27
2022-10-30T11:56:29.040Z,20.30
2022-10-30T11:57:28.930Z,20.27
2022-10-30T11:58:28.936Z,20.23
2022-10-30T11:59:28.912Z,20.23
2022-10-30T12:00:28.940Z,20.20
2022-10-30T12:01:28.936Z,20.23
2022-10-30T12:02:29.043Z,20.27
2022-10-30T12:03:28.893Z,20.26
2022-10-30T12:04:29.050Z,20.33
2022-10-30T12:05:28.974Z,20.31
2022-10-30T12:06:28.851Z,20.30
2022-10-30T12:07:28.832Z,20.34
2022-10-30T12:08:28.792Z,20.34
2022-10-30T12:09:28.773Z,20.34
2022-10-30T12:10:28.763Z,20.37
2022-10-30T12:11:28.776Z,20.41
2022-10-30T12:12:28.744Z,20.44
2022-10-30T12:13:28.746Z,20.53
2022-10-30T12:14:28.714Z,20.56
2022-10-30T12:15:28.829Z,20.58
2022-10-30T12:16:28.867Z,20.64
2022-10-30T12:17:28.685Z,20.66
2022-10-30T12:19:28.649Z,20.71
2022-10-30T12:20:28.635Z,20.72
2022-10-30T12:21:28.676Z,20.79
2022-10-30T12:22:28.736Z,20.79
2022-10-30T12:23:28.679Z,20.87
2022-10-30T12:24:28.577Z,20.87
2022-10-30T12:25:28.608Z,20.81
2022-10-30T12:26:28.815Z,20.78
2022-10-30T12:27:28.536Z,20.75
2022-10-30T12:28:28.546Z,20.73
2022-10-30T12:29:41.852Z,20.66
2022-10-30T12:30:30.446Z,20.60
2022-10-30T12:31:28.508Z,20.61
2022-10-30T12:32:28.475Z,20.61
2022-10-30T12:33:28.458Z,20.64
2022-10-30T12:34:28.445Z,20.69
2022-10-30T12:35:28.429Z,20.75
2022-10-30T12:36:28.468Z,20.79
2022-10-30T12:37:28.418Z,20.87
2022-10-30T12:38:28.390Z,20.90
2022-10-30T12:39:28.377Z,20.91
2022-10-30T12:40:28.419Z,20.94
2022-10-30T12:41:28.380Z,21.03
2022-10-30T12:42:28.340Z,21.06
2022-10-30T12:43:28.321Z,21.11
2022-10-30T12:44:28.317Z,21.16
2022-10-30T12:45:28.477Z,21.21
2022-10-30T12:46:28.406Z,21.27
2022-10-30T12:47:28.278Z,21.33
2022-10-30T12:48:28.269Z,21.40
2022-10-30T12:49:28.270Z,21.48
2022-10-30T12:50:28.260Z,21.55
2022-10-30T12:51:28.249Z,21.59
2022-10-30T12:52:28.200Z,21.67
2022-10-30T12:53:28.189Z,21.66